Time;durP1;ratioP1;P1;durP2;ratioP2;P2;SDS_P1;SDS_P2;PMS_P1;PMS_P2;Temp;Humidity;BMP_temperature;BMP_pressure;BME280_temperature;BME280_humidity;BME280_pressure;Samples;Min_cycle;Max_cycle;Signal;HPM_P1;HPM_P2
2024/03/01 00:00:34;;;;;;;93.40;42.20;;;;;;;7.38;50.16;100913.66;108394;1255;60775;-67
2024/03/01 00:03:02;;;;;;;93.30;42.80;;;;;;;7.30;50.34;100912.36;108227;1252;73626;-67
2024/03/01 00:05:30;;;;;;;77.20;32.40;;;;;;;7.34;50.36;100911.98;108312;1254;69188;-66
2024/03/01 00:07:57;;;;;;;111.10;45.60;;;;;;;7.36;50.19;100910.72;108322;1254;72501;-67
2024/03/01 00:10:24;;;;;;;102.60;44.20;;;;;;;7.39;50.26;100917.14;108139;1254;59182;-67
2024/03/01 00:12:51;;;;;;;124.40;51.70;;;;;;;7.18;50.63;100919.47;108244;1254;60181;-67
2024/03/01 00:15:17;;;;;;;132.20;54.90;;;;;;;6.91;51.17;100922.88;108276;1254;73652;-67
2024/03/01 00:17:44;;;;;;;130.10;55.50;;;;;;;6.96;51.03;100916.73;108274;1254;70730;-67
2024/03/01 00:20:12;;;;;;;149.10;63.20;;;;;;;6.93;51.20;100918.15;108238;1254;71038;-66
2024/03/01 00:22:39;;;;;;;157.10;64.00;;;;;;;6.84;51.32;100917.71;108349;1253;61028;-66
2024/03/01 00:25:08;;;;;;;134.00;55.20;;;;;;;6.89;51.25;100915.39;108329;1254;60397;-67
2024/03/01 00:27:35;;;;;;;138.90;61.10;;;;;;;6.86;51.49;100917.86;108071;1253;73620;-68
2024/03/01 00:30:03;;;;;;;124.40;55.30;;;;;;;6.89;51.51;100921.33;108229;1257;70151;-68
2024/03/01 00:32:32;;;;;;;156.10;64.60;;;;;;;7.02;51.70;100918.06;108316;1253;72899;-67
2024/03/01 00:34:59;;;;;;;157.40;68.30;;;;;;;7.01;51.61;100909.00;108327;1251;61204;-67
2024/03/01 00:37:26;;;;;;;110.80;51.90;;;;;;;7.09;51.41;100905.95;108385;1251;60432;-67
2024/03/01 00:39:53;;;;;;;140.60;58.70;;;;;;;7.10;51.41;100904.20;108356;1251;73802;-67
2024/03/01 00:42:19;;;;;;;132.90;59.30;;;;;;;7.07;51.30;100904.56;108252;1256;70190;-66
2024/03/01 00:44:46;;;;;;;96.30;42.90;;;;;;;7.08;51.18;100900.20;108364;1251;72313;-65
2024/03/01 00:47:14;;;;;;;136.90;57.70;;;;;;;7.20;50.83;100899.91;108304;1251;61026;-66
2024/03/01 00:49:40;;;;;;;111.30;50.60;;;;;;;7.26;50.54;100899.30;108339;1251;59178;-67
2024/03/01 00:52:07;;;;;;;136.30;57.80;;;;;;;7.24;50.62;100898.45;108326;1251;73755;-66
2024/03/01 00:54:35;;;;;;;123.50;53.80;;;;;;;7.24;50.60;100898.63;108326;1251;70267;-67
2024/03/01 00:57:01;;;;;;;99.80;44.40;;;;;;;7.10;50.95;100895.45;108312;1251;60459;-67
2024/03/01 00:59:29;;;;;;;127.10;53.50;;;;;;;7.15;51.09;100896.80;108334;1251;60998;-67
2024/03/01 01:01:55;;;;;;;127.40;53.50;;;;;;;7.16;51.02;100891.91;108324;1251;60457;-67
2024/03/01 01:04:22;;;;;;;133.10;60.40;;;;;;;7.22;50.78;100889.55;108305;1251;73801;-66
2024/03/01 01:06:49;;;;;;;115.10;53.50;;;;;;;7.10;50.96;100887.61;108348;1250;70784;-67
2024/03/01 01:09:16;;;;;;;101.00;44.10;;;;;;;7.15;51.03;100887.73;108324;1251;72636;-67
2024/03/01 01:11:43;;;;;;;104.00;48.60;;;;;;;7.10;51.19;100884.13;108323;1251;60400;-67
2024/03/01 01:14:09;;;;;;;92.80;39.30;;;;;;;7.07;51.29;100879.78;108314;1251;60326;-67
2024/03/01 01:16:36;;;;;;;94.20;45.80;;;;;;;7.10;51.22;100875.90;108284;1251;72727;-67
2024/03/01 01:19:03;;;;;;;95.70;44.50;;;;;;;7.05;51.42;100881.20;108349;1251;70280;-66
2024/03/01 01:21:32;;;;;;;97.40;43.80;;;;;;;6.96;51.72;100883.91;108332;1257;73257;-66
2024/03/01 01:24:00;;;;;;;87.70;41.90;;;;;;;6.93;51.54;100888.48;108426;1251;61042;-67
2024/03/01 01:26:26;;;;;;;86.20;40.20;;;;;;;6.97;51.41;100886.50;108256;1251;60415;-66
2024/03/01 01:28:53;;;;;;;88.80;40.20;;;;;;;6.89;51.63;100883.27;108168;1251;72377;-67
2024/03/01 01:31:21;;;;;;;97.40;43.20;;;;;;;6.80;52.00;100878.48;108303;1251;70128;-67
2024/03/01 01:33:48;;;;;;;80.00;38.10;;;;;;;6.74;52.09;100876.98;108381;1251;72268;-66
2024/03/01 01:36:15;;;;;;;104.00;45.00;;;;;;;6.84;52.02;100872.33;108344;1251;61203;-64
2024/03/01 01:38:42;;;;;;;85.70;39.20;;;;;;;6.87;51.95;100874.92;108294;1251;60031;-65
2024/03/01 01:41:09;;;;;;;81.90;36.20;;;;;;;6.90;51.95;100874.02;108140;1251;74543;-65
2024/03/01 01:43:37;;;;;;;78.10;36.70;;;;;;;6.89;52.02;100874.20;108321;1251;69168;-68
2024/03/01 01:46:05;;;;;;;88.20;37.10;;;;;;;6.92;51.94;100869.79;108264;1256;72491;-66
2024/03/01 01:48:33;;;;;;;90.40;40.50;;;;;;;6.85;51.91;100866.21;108312;1251;61021;-65
2024/03/01 01:51:00;;;;;;;103.60;44.10;;;;;;;6.68;52.20;100864.98;108469;1250;59463;-67
2024/03/01 01:53:27;;;;;;;85.00;37.70;;;;;;;6.68;52.26;100861.83;108283;1251;73763;-66
2024/03/01 01:56:01;;;;;;;90.40;41.00;;;;;;;6.68;52.09;100864.11;108388;1251;70801;-66
2024/03/01 01:58:29;;;;;;;91.40;43.00;;;;;;;6.64;52.30;100859.61;108350;1252;71251;-66
2024/03/01 02:00:57;;;;;;;87.70;38.40;;;;;;;6.67;52.26;100861.84;108253;1251;60440;-66
2024/03/01 02:03:24;;;;;;;98.10;43.30;;;;;;;6.61;52.40;100856.33;108328;1250;60436;-66
2024/03/01 02:05:51;;;;;;;74.00;36.10;;;;;;;6.56;52.58;100867.88;108361;1251;73733;-67
2024/03/01 02:08:18;;;;;;;90.40;40.70;;;;;;;6.66;52.43;100870.23;108414;1251;70754;-67
2024/03/01 02:10:45;;;;;;;83.30;40.20;;;;;;;6.67;52.40;100868.82;108287;1250;72343;-67
2024/03/01 02:13:18;;;;;;;78.40;36.10;;;;;;;6.78;52.22;100868.73;108334;1249;61050;-67
2024/03/01 02:15:51;;;;;;;91.70;41.50;;;;;;;6.68;52.36;100867.93;108241;1251;60326;-67
2024/03/01 02:18:18;;;;;;;96.30;44.00;;;;;;;6.68;52.29;100866.89;108422;1255;73645;-67
2024/03/01 02:20:51;;;;;;;99.10;45.10;;;;;;;6.65;52.20;100861.52;108394;1251;69652;-65
2024/03/01 02:23:19;;;;;;;95.90;42.40;;;;;;;6.59;52.24;100862.10;108376;1252;71239;-67
2024/03/01 02:25:45;;;;;;;80.60;37.70;;;;;;;6.60;52.13;100852.14;108361;1251;60402;-68
2024/03/01 02:28:12;;;;;;;86.20;39.20;;;;;;;6.66;52.31;100846.85;108337;1251;60357;-66
2024/03/01 02:30:39;;;;;;;90.90;41.50;;;;;;;6.71;52.29;100846.61;108346;1251;73606;-67
2024/03/01 02:33:05;;;;;;;75.60;35.00;;;;;;;6.59;52.35;100845.52;108301;1255;69253;-68
2024/03/01 02:35:32;;;;;;;72.90;37.60;;;;;;;6.57;52.52;100851.13;108332;1255;73469;-68
2024/03/01 02:37:59;;;;;;;70.00;33.20;;;;;;;6.59;52.54;100854.77;108216;1252;60536;-66
2024/03/01 02:40:26;;;;;;;92.20;41.10;;;;;;;6.55;52.63;100854.29;108223;1251;60328;-67
2024/03/01 02:42:53;;;;;;;88.60;42.00;;;;;;;6.45;52.71;100851.23;108329;1255;73713;-66
2024/03/01 02:45:20;;;;;;;88.90;40.30;;;;;;;6.44;52.74;100849.31;108309;1253;70542;-66
2024/03/01 02:47:46;;;;;;;96.00;42.20;;;;;;;6.38;52.69;100851.80;108304;1251;72723;-66
2024/03/01 02:50:14;;;;;;;94.30;42.80;;;;;;;6.39;52.79;100852.49;108247;1251;61132;-66
2024/03/01 02:52:40;;;;;;;84.30;36.60;;;;;;;6.34;52.62;100857.94;108221;1251;60198;-67
2024/03/01 02:55:07;;;;;;;83.20;39.20;;;;;;;6.39;52.58;100859.13;108087;1253;73877;-66
2024/03/01 02:57:34;;;;;;;90.70;39.90;;;;;;;6.40;52.67;100858.77;108281;1251;69121;-68
2024/03/01 03:00:04;;;;;;;98.20;43.90;;;;;;;6.34;52.89;100858.29;108205;1251;72572;-66
2024/03/01 03:02:35;;;;;;;92.60;43.20;;;;;;;6.37;52.66;100862.63;108238;1256;60442;-67
2024/03/01 03:05:03;;;;;;;94.10;41.50;;;;;;;6.39;52.49;100861.03;108262;1251;60450;-66
2024/03/01 03:07:30;;;;;;;86.20;38.90;;;;;;;6.35;52.44;100858.45;108269;1254;72515;-66
2024/03/01 03:09:57;;;;;;;79.20;38.50;;;;;;;6.30;52.70;100859.54;108273;1251;70528;-67
2024/03/01 03:12:23;;;;;;;85.50;41.80;;;;;;;6.32;52.73;100856.21;108207;1251;71133;-66
2024/03/01 03:14:51;;;;;;;97.10;44.50;;;;;;;6.32;52.65;100854.30;108220;1251;60455;-66
2024/03/01 03:17:18;;;;;;;81.80;39.40;;;;;;;6.34;52.56;100853.73;108312;1253;60216;-65
2024/03/01 03:19:45;;;;;;;103.10;44.20;;;;;;;6.28;52.80;100850.84;108328;1251;72535;-66
2024/03/01 03:22:11;;;;;;;96.60;42.40;;;;;;;6.39;52.67;100849.88;108412;1255;69136;-67
2024/03/01 03:24:38;;;;;;;95.90;43.40;;;;;;;6.36;52.63;100854.95;108220;1251;73354;-67
2024/03/01 03:27:08;;;;;;;100.00;46.70;;;;;;;6.28;52.63;100860.43;108306;1251;60424;-66
2024/03/01 03:29:35;;;;;;;104.40;49.40;;;;;;;6.27;52.71;100858.86;108370;1252;60315;-68
2024/03/01 03:32:05;;;;;;;117.60;52.70;;;;;;;6.25;52.58;100859.92;108238;1251;73688;-66
2024/03/01 03:34:33;;;;;;;114.50;50.80;;;;;;;6.29;52.53;100861.30;108289;1254;70412;-66
2024/03/01 03:37:00;;;;;;;101.30;46.20;;;;;;;6.22;52.78;100863.09;108204;1256;72987;-66
2024/03/01 03:39:26;;;;;;;145.10;62.60;;;;;;;6.15;52.85;100866.10;108269;1254;60910;-67
2024/03/01 03:41:53;;;;;;;119.80;57.30;;;;;;;6.20;52.78;100867.11;108216;1255;60422;-66
2024/03/01 03:44:20;;;;;;;137.90;63.30;;;;;;;6.25;52.62;100867.77;108174;1254;73859;-67
2024/03/01 03:46:47;;;;;;;134.20;63.40;;;;;;;6.19;52.47;100864.33;108195;1254;68964;-67
2024/03/01 03:49:14;;;;;;;142.80;63.90;;;;;;;6.19;52.62;100856.31;108217;1256;72670;-67
2024/03/01 03:51:40;;;;;;;146.20;65.80;;;;;;;6.18;52.44;100854.59;108202;1254;61067;-66
2024/03/01 03:54:07;;;;;;;138.60;62.40;;;;;;;6.04;52.84;100850.14;108185;1254;60293;-70
2024/03/01 03:56:34;;;;;;;146.50;64.60;;;;;;;6.00;52.91;100846.16;108217;1254;72673;-67
2024/03/01 03:59:01;;;;;;;139.70;63.20;;;;;;;5.95;53.13;100843.58;108221;1255;70889;-67
2024/03/01 04:01:28;;;;;;;104.60;45.90;;;;;;;5.86;53.54;100844.83;108169;1254;73204;-66
2024/03/01 04:03:55;;;;;;;131.40;59.10;;;;;;;5.97;53.44;100841.65;108133;1254;59680;-66
2024/03/01 04:06:23;;;;;;;125.90;57.90;;;;;;;6.02;53.42;100842.83;108182;1252;60427;-67
2024/03/01 04:08:50;;;;;;;137.40;60.80;;;;;;;5.99;53.46;100842.51;108240;1253;72411;-67
2024/03/01 04:11:16;;;;;;;123.00;57.70;;;;;;;5.97;53.58;100843.39;108084;1254;70292;-67
2024/03/01 04:13:43;;;;;;;104.60;47.90;;;;;;;6.07;53.21;100845.94;108214;1254;72466;-67
2024/03/01 04:16:10;;;;;;;132.60;52.60;;;;;;;6.18;53.21;100842.90;108205;1258;61137;-67
2024/03/01 04:18:37;;;;;;;119.50;55.70;;;;;;;6.29;53.03;100845.25;108226;1255;60534;-67
2024/03/01 04:21:05;;;;;;;110.50;50.30;;;;;;;6.33;52.93;100844.34;108237;1256;71758;-66
2024/03/01 04:23:32;;;;;;;127.10;57.40;;;;;;;6.36;52.85;100845.02;108238;1256;68130;-67
2024/03/01 04:25:59;;;;;;;88.30;42.60;;;;;;;6.33;52.83;100845.91;108224;1257;71147;-66
2024/03/01 04:28:26;;;;;;;96.10;47.90;;;;;;;6.36;52.83;100848.67;108145;1260;60662;-66
2024/03/01 04:30:53;;;;;;;111.60;49.10;;;;;;;6.40;52.66;100848.99;108218;1254;60390;-67
2024/03/01 04:33:20;;;;;;;87.50;42.80;;;;;;;6.45;52.59;100843.02;108276;1254;73656;-67
2024/03/01 04:35:47;;;;;;;115.80;54.10;;;;;;;6.31;52.89;100840.17;108310;1251;70449;-66
2024/03/01 04:38:14;;;;;;;83.50;40.00;;;;;;;6.31;52.88;100842.79;108299;1251;72983;-67
2024/03/01 04:40:41;;;;;;;82.10;38.60;;;;;;;6.27;53.03;100842.84;108285;1254;60857;-67
2024/03/01 04:43:08;;;;;;;128.20;55.30;;;;;;;6.16;53.25;100846.75;108328;1256;60319;-66
2024/03/01 04:45:35;;;;;;;102.40;47.40;;;;;;;6.04;53.47;100855.02;108282;1253;72512;-67
2024/03/01 04:48:04;;;;;;;112.90;48.60;;;;;;;6.01;53.67;100859.75;108304;1254;70930;-67
2024/03/01 04:50:31;;;;;;;112.30;48.40;;;;;;;5.97;53.66;100861.16;108316;1256;72744;-68
2024/03/01 04:52:58;;;;;;;113.20;51.60;;;;;;;6.02;53.62;100870.02;108280;1256;61197;-67
2024/03/01 04:55:25;;;;;;;120.10;53.30;;;;;;;6.06;53.41;100871.40;108312;1253;60362;-67
2024/03/01 04:57:51;;;;;;;113.30;49.30;;;;;;;6.01;53.43;100873.16;108206;1253;73626;-67
2024/03/01 05:00:21;;;;;;;117.80;52.50;;;;;;;5.97;53.56;100873.20;108262;1254;69630;-66
2024/03/01 05:02:48;;;;;;;113.40;52.30;;;;;;;5.93;53.69;100876.51;108249;1257;72576;-66
2024/03/01 05:05:15;;;;;;;111.80;49.10;;;;;;;5.99;53.77;100875.45;108509;1253;60999;-68
2024/03/01 05:07:47;;;;;;;125.60;55.90;;;;;;;5.96;53.97;100877.38;108404;1254;60418;-66
2024/03/01 05:10:21;;;;;;;91.10;41.20;;;;;;;5.99;54.00;100874.58;108499;1252;72550;-67
2024/03/01 05:12:49;;;;;;;109.90;50.30;;;;;;;6.07;53.99;100879.75;108549;1256;69072;-67
2024/03/01 05:15:16;;;;;;;124.00;55.80;;;;;;;6.15;53.77;100877.96;108426;1254;72922;-65
2024/03/01 05:17:45;;;;;;;120.60;55.70;;;;;;;6.16;53.70;100874.83;108254;1254;60433;-69
2024/03/01 05:20:12;;;;;;;120.50;55.20;;;;;;;6.16;53.75;100877.25;108286;1254;60459;-66
2024/03/01 05:22:39;;;;;;;115.10;53.60;;;;;;;6.24;53.64;100877.38;108196;1256;73943;-66
2024/03/01 05:25:14;;;;;;;87.40;42.00;;;;;;;6.28;53.67;100881.88;108338;1254;70152;-66
2024/03/01 05:27:41;;;;;;;130.10;54.00;;;;;;;6.30;53.85;100882.91;108297;1256;71413;-66
2024/03/01 05:30:10;;;;;;;123.30;55.90;;;;;;;6.37;53.78;100877.10;108355;1252;61041;-66
2024/03/01 05:32:47;;;;;;;95.50;42.10;;;;;;;6.42;53.80;100878.11;108303;1254;60446;-66
2024/03/01 05:35:16;;;;;;;130.60;52.60;;;;;;;6.57;53.60;100871.02;108234;1256;73602;-67
2024/03/01 05:37:43;;;;;;;103.40;49.70;;;;;;;6.60;53.73;100873.77;108225;1254;69212;-67
2024/03/01 05:40:11;;;;;;;148.50;64.70;;;;;;;6.72;53.58;100875.77;108209;1253;72904;-68
2024/03/01 05:42:39;;;;;;;156.00;67.60;;;;;;;6.70;53.74;100877.35;108251;1257;61181;-68
2024/03/01 05:45:07;;;;;;;173.20;74.30;;;;;;;6.71;53.86;100877.87;107975;1254;60989;-67
2024/03/01 05:47:42;;;;;;;171.90;74.70;;;;;;;6.80;53.88;100877.08;108167;1254;73634;-68
2024/03/01 05:50:11;;;;;;;161.20;62.70;;;;;;;6.82;53.83;100885.09;108195;1256;69608;-67
2024/03/01 05:52:42;;;;;;;164.10;72.00;;;;;;;6.93;53.89;100886.39;108256;1257;72714;-67
2024/03/01 05:55:12;;;;;;;169.20;72.60;;;;;;;7.04;53.59;100885.23;108261;1254;61015;-67
2024/03/01 05:57:40;;;;;;;138.60;57.00;;;;;;;7.07;53.75;100890.95;108185;1254;60041;-67
2024/03/01 06:00:26;;;;;;;170.40;69.90;;;;;;;7.14;53.64;100890.70;108211;1254;73789;-67
2024/03/01 06:02:53;;;;;;;148.00;61.70;;;;;;;7.19;53.78;100896.77;108232;1256;69093;-66
2024/03/01 06:05:24;;;;;;;137.30;57.00;;;;;;;7.25;53.72;100898.44;108183;1254;71699;-65
2024/03/01 06:07:51;;;;;;;119.40;56.10;;;;;;;7.29;53.85;100903.29;108144;1254;61658;-68
2024/03/01 06:10:18;;;;;;;125.80;55.80;;;;;;;7.40;53.67;100908.06;108207;1256;60447;-68
2024/03/01 06:12:45;;;;;;;115.20;51.60;;;;;;;7.48;53.76;100905.34;108198;1254;73869;-67
2024/03/01 06:15:12;;;;;;;121.90;52.00;;;;;;;7.55;53.72;100910.48;108196;1254;70074;-67
2024/03/01 06:17:39;;;;;;;104.90;48.10;;;;;;;7.69;53.45;100906.48;108176;1254;72499;-68
2024/03/01 06:20:08;;;;;;;107.10;47.30;;;;;;;7.73;53.51;100911.50;108210;1254;61171;-67
2024/03/01 06:22:35;;;;;;;97.30;40.90;;;;;;;7.96;52.88;100918.73;108236;1253;60357;-67
2024/03/01 06:28:34;;;;;;;88.60;42.30;;;;;;;5.80;58.15;100927.04;104841;1294;600214;-68
2024/03/01 06:31:01;;;;;;;84.80;38.80;;;;;;;6.96;54.92;100927.89;107377;1267;59129;-68
2024/03/01 06:33:28;;;;;;;90.10;39.10;;;;;;;7.25;53.94;100925.68;107830;1257;60171;-67
2024/03/01 06:35:55;;;;;;;89.30;40.10;;;;;;;7.51;53.12;100926.80;107828;1256;70800;-67
2024/03/01 06:38:22;;;;;;;73.40;35.00;;;;;;;7.68;52.32;100925.89;108063;1254;70282;-67
2024/03/01 06:40:49;;;;;;;78.40;37.50;;;;;;;7.78;51.86;100925.08;107927;1253;145784;-68
2024/03/01 06:43:15;;;;;;;86.00;39.10;;;;;;;7.80;52.02;100925.92;108186;1254;60415;-66
2024/03/01 06:45:42;;;;;;;73.90;36.60;;;;;;;7.83;51.63;100928.51;108166;1253;59883;-67
2024/03/01 06:48:09;;;;;;;82.60;37.00;;;;;;;7.81;51.48;100928.36;108163;1253;70240;-67
2024/03/01 06:50:38;;;;;;;77.40;37.50;;;;;;;7.94;51.21;100928.52;108112;1254;70170;-67
2024/03/01 06:53:05;;;;;;;84.20;36.70;;;;;;;8.01;51.18;100930.54;108098;1254;72845;-68
2024/03/01 06:55:32;;;;;;;84.20;38.10;;;;;;;8.10;50.86;100930.41;108180;1253;61025;-68
2024/03/01 06:57:59;;;;;;;82.30;40.60;;;;;;;8.17;50.76;100928.92;108169;1253;59644;-67
2024/03/01 07:00:26;;;;;;;112.20;41.60;;;;;;;8.27;50.48;100927.19;108176;1252;73444;-67
2024/03/01 07:02:53;;;;;;;107.60;45.70;;;;;;;8.32;50.52;100925.55;108147;1256;71397;-68
2024/03/01 07:05:20;;;;;;;89.70;39.20;;;;;;;8.44;50.46;100925.21;108255;1253;73689;-67
2024/03/01 07:07:47;;;;;;;97.20;44.10;;;;;;;8.51;50.30;100930.02;108227;1253;61311;-64
2024/03/01 07:10:14;;;;;;;89.50;39.80;;;;;;;8.49;49.88;100933.36;108277;1252;59739;-68
2024/03/01 07:12:41;;;;;;;102.50;43.90;;;;;;;8.47;50.07;100935.31;108215;1254;72386;-69
2024/03/01 07:15:08;;;;;;;93.90;42.50;;;;;;;8.65;49.78;100938.73;108131;1254;70217;-68
2024/03/01 07:17:35;;;;;;;83.60;38.90;;;;;;;8.87;49.56;100942.39;108139;1252;73649;-66
2024/03/01 07:20:02;;;;;;;87.20;41.80;;;;;;;9.00;49.53;100939.19;108118;1254;61171;-66
2024/03/01 07:22:29;;;;;;;82.50;39.50;;;;;;;9.12;49.36;100938.63;108168;1253;59985;-68
2024/03/01 07:24:57;;;;;;;86.90;39.50;;;;;;;9.30;49.17;100932.14;108125;1252;72813;-67
2024/03/01 07:27:24;;;;;;;87.80;41.60;;;;;;;9.45;48.83;100933.61;108192;1253;70506;-66
2024/03/01 07:29:51;;;;;;;127.50;54.20;;;;;;;9.67;47.83;100932.66;108150;1254;72443;-69
2024/03/01 07:32:18;;;;;;;83.70;35.80;;;;;;;9.81;47.10;100931.66;108103;1254;61642;-68
2024/03/01 07:34:44;;;;;;;64.50;29.60;;;;;;;9.91;46.19;100936.71;108133;1254;59550;-68
2024/03/01 07:37:12;;;;;;;60.40;27.00;;;;;;;10.01;45.69;100934.04;108207;1254;73131;-65
2024/03/01 07:39:39;;;;;;;55.90;26.60;;;;;;;10.15;45.32;100933.02;108054;1254;68772;-68
2024/03/01 07:42:06;;;;;;;52.10;26.90;;;;;;;10.26;45.06;100932.10;108126;1254;72624;-70
2024/03/01 07:44:33;;;;;;;54.00;26.80;;;;;;;10.42;44.96;100930.50;108032;1253;61072;-67
2024/03/01 07:47:03;;;;;;;54.50;26.00;;;;;;;10.61;44.96;100932.68;108037;1253;59938;-68
2024/03/01 07:49:32;;;;;;;56.10;26.90;;;;;;;10.94;44.46;100932.55;108058;1254;74325;-67
2024/03/01 07:51:59;;;;;;;60.80;28.50;;;;;;;11.31;43.98;100928.08;108079;1254;70352;-67
2024/03/01 07:54:27;;;;;;;58.80;28.50;;;;;;;11.78;43.70;100931.86;108193;1253;72545;-67
2024/03/01 07:56:54;;;;;;;51.60;27.00;;;;;;;12.16;43.33;100930.23;108139;1254;61434;-67
2024/03/01 07:59:21;;;;;;;60.10;28.90;;;;;;;12.60;42.16;100926.34;108123;1254;59534;-68
2024/03/01 08:01:48;;;;;;;54.50;27.80;;;;;;;12.98;41.31;100929.86;108106;1254;74103;-68
2024/03/01 08:04:15;;;;;;;53.90;26.40;;;;;;;13.26;40.31;100927.64;108069;1254;70642;-68
2024/03/01 08:06:42;;;;;;;48.90;24.50;;;;;;;13.39;39.67;100926.16;108024;1254;72672;-67
2024/03/01 08:09:16;;;;;;;66.20;27.80;;;;;;;13.50;39.31;100929.65;108152;1254;59097;-68
2024/03/01 08:11:46;;;;;;;48.70;26.60;;;;;;;13.65;39.31;100927.66;108074;1259;59797;-68
2024/03/01 08:14:34;;;;;;;55.30;26.50;;;;;;;13.97;39.20;100925.41;108033;1254;72294;-67
2024/03/01 08:17:01;;;;;;;49.00;25.40;;;;;;;14.51;39.15;100922.24;108053;1254;69427;-67
2024/03/01 08:19:36;;;;;;;54.10;26.60;;;;;;;15.12;38.61;100915.27;107981;1259;73488;-68
2024/03/01 08:22:12;;;;;;;55.00;26.90;;;;;;;15.48;37.00;100915.62;108050;1254;59736;-69
2024/03/01 08:24:40;;;;;;;49.80;25.50;;;;;;;15.53;36.22;100918.79;108099;1254;59591;-68
2024/03/01 08:27:08;;;;;;;51.60;26.20;;;;;;;15.53;36.25;100915.95;108029;1254;73135;-69
2024/03/01 08:29:40;;;;;;;49.00;24.00;;;;;;;15.63;35.81;100913.20;108019;1254;69198;-67
2024/03/01 08:32:23;;;;;;;60.80;25.90;;;;;;;15.60;36.14;100910.65;108173;1254;71319;-69
2024/03/01 08:34:52;;;;;;;56.20;26.00;;;;;;;15.69;35.98;100904.98;108040;1254;60439;-67
2024/03/01 08:37:22;;;;;;;57.20;25.60;;;;;;;15.61;35.59;100910.79;107965;1254;61972;-66
2024/03/01 08:39:49;;;;;;;;;;;;;;;15.66;35.48;100912.34;108027;1254;71951;-68
2024/03/01 08:42:16;;;;;;;52.30;24.30;;;;;;;15.86;35.50;100913.61;108039;1254;70212;-68
2024/03/01 08:44:54;;;;;;;45.80;24.80;;;;;;;16.07;35.06;100914.04;107843;1254;72986;-68
2024/03/01 08:47:27;;;;;;;49.80;26.80;;;;;;;16.34;34.36;100909.17;107953;1254;59638;-68
2024/03/01 08:49:54;;;;;;;44.50;24.10;;;;;;;16.49;34.00;100913.04;108066;1254;59536;-68
2024/03/01 08:52:38;;;;;;;58.50;25.30;;;;;;;16.46;33.76;100909.66;108049;1254;72738;-69
2024/03/01 08:55:09;;;;;;;50.70;23.30;;;;;;;16.49;34.05;100906.13;107926;1254;69338;-68
2024/03/01 08:57:39;;;;;;;53.10;25.10;;;;;;;16.42;33.57;100904.53;108119;1254;71734;-68
2024/03/01 09:00:28;;;;;;;54.30;24.60;;;;;;;16.45;33.59;100903.69;107940;1254;59653;-68
2024/03/01 09:02:55;;;;;;;49.50;24.00;;;;;;;16.44;33.53;100902.83;107933;1259;59734;-67
2024/03/01 09:05:22;;;;;;;55.00;24.00;;;;;;;16.45;33.47;100902.80;107844;1254;74392;-68
2024/03/01 09:07:49;;;;;;;46.40;24.30;;;;;;;16.55;33.17;100903.70;108064;1254;69639;-70
2024/03/01 09:10:36;;;;;;;53.60;23.90;;;;;;;16.51;33.42;100906.06;108079;1254;72987;-68
2024/03/01 09:13:03;;;;;;;48.80;23.50;;;;;;;16.52;33.37;100905.80;108008;1254;60456;-67
2024/03/01 09:15:38;;;;;;;46.40;21.60;;;;;;;16.52;33.56;100901.05;107856;1254;60361;-68
2024/03/01 09:18:25;;;;;;;49.40;22.60;;;;;;;16.47;33.30;100900.02;108073;1254;74314;-69
2024/03/01 09:20:54;;;;;;;47.30;21.90;;;;;;;16.56;32.99;100899.74;108132;1254;70365;-68
2024/03/01 09:23:20;;;;;;;52.10;22.40;;;;;;;16.77;32.92;100899.80;108050;1254;71852;-68
2024/03/01 09:25:52;;;;;;;51.90;24.00;;;;;;;17.25;32.64;100897.17;108003;1254;60218;-67
2024/03/01 09:28:23;;;;;;;51.70;24.80;;;;;;;17.77;31.56;100889.79;108024;1254;59740;-68
2024/03/01 09:30:52;;;;;;;51.10;22.90;;;;;;;18.11;31.19;100887.21;107825;1254;74418;-67
2024/03/01 09:33:20;;;;;;;43.40;22.40;;;;;;;18.46;31.10;100882.34;107826;1254;71558;-68
2024/03/01 09:35:51;;;;;;;48.60;20.80;;;;;;;19.04;29.88;100879.48;108003;1254;72555;-67
2024/03/01 09:38:21;;;;;;;54.70;20.90;;;;;;;19.36;29.15;100877.86;108045;1254;59654;-69
2024/03/01 09:40:52;;;;;;;38.70;19.80;;;;;;;19.74;28.38;100877.46;108086;1254;61407;-66
2024/03/01 09:43:38;;;;;;;38.90;20.40;;;;;;;20.02;28.06;100876.77;108030;1254;73116;-67
2024/03/01 09:46:07;;;;;;;42.80;19.50;;;;;;;20.48;27.96;100875.58;108095;1254;70515;-68
2024/03/01 09:49:16;;;;;;;27.00;14.80;;;;;;;21.00;26.28;100869.21;108006;1254;73064;-69
2024/03/01 09:51:55;;;;;;;26.10;14.40;;;;;;;20.93;24.86;100868.08;107754;1254;60436;-68
2024/03/01 09:54:49;;;;;;;29.60;17.00;;;;;;;20.88;25.12;100865.95;108054;1257;61262;-69
2024/03/01 09:57:29;;;;;;;39.10;16.60;;;;;;;20.82;25.17;100861.76;107804;1254;74272;-69
2024/03/01 10:00:11;;;;;;;37.90;17.00;;;;;;;20.69;25.26;100862.39;108023;1254;70326;-68
2024/03/01 10:03:21;;;;;;;34.90;15.60;;;;;;;20.63;25.49;100863.36;107920;1255;71613;-69
2024/03/01 10:06:26;;;;;;;30.00;14.70;;;;;;;20.29;25.24;100853.47;108071;1254;60366;-69
2024/03/01 10:09:09;;;;;;;27.80;12.70;;;;;;;20.24;25.31;100851.10;107970;1254;60298;-69
2024/03/01 10:12:01;;;;;;;27.80;14.10;;;;;;;19.89;24.65;100848.61;107924;1254;73270;-68
2024/03/01 10:14:44;;;;;;;26.90;14.30;;;;;;;19.73;24.70;100851.21;107939;1254;70870;-69
2024/03/01 10:17:52;;;;;;;29.20;14.30;;;;;;;19.67;24.93;100849.98;108072;1254;72780;-67
2024/03/01 10:20:37;;;;;;;28.50;15.40;;;;;;;19.71;25.19;100851.88;107765;1254;60302;-68
2024/03/01 10:23:27;;;;;;;26.80;15.50;;;;;;;19.66;25.46;100849.15;107988;1254;59789;-69
2024/03/01 10:26:11;;;;;;;33.50;15.40;;;;;;;19.55;25.75;100847.66;108055;1254;73030;-69
2024/03/01 10:28:48;;;;;;;33.10;15.30;;;;;;;19.82;25.64;100845.84;108055;1254;70944;-69
2024/03/01 10:31:37;;;;;;;34.80;15.40;;;;;;;20.24;25.40;100844.70;108021;1254;73828;-69
2024/03/01 10:34:26;;;;;;;34.00;14.50;;;;;;;20.58;24.85;100842.26;108025;1254;59614;-67
2024/03/01 10:36:54;;;;;;;32.20;13.60;;;;;;;20.95;24.55;100835.67;108043;1253;60251;-67
2024/03/01 10:39:25;;;;;;;30.00;14.00;;;;;;;20.79;24.09;100840.64;108056;1254;72700;-69
2024/03/01 10:42:05;;;;;;;26.90;13.20;;;;;;;20.49;24.47;100840.36;108099;1253;70236;-68
2024/03/01 10:44:53;;;;;;;;;;;;;;;20.20;24.01;100841.75;108060;1253;72724;-69
2024/03/01 10:47:21;;;;;;;24.90;13.60;;;;;;;20.45;24.06;100834.41;108067;1254;60809;-69
2024/03/01 10:50:13;;;;;;;28.30;14.40;;;;;;;20.49;23.89;100836.39;108040;1254;60350;-69
2024/03/01 10:52:44;;;;;;;28.80;13.60;;;;;;;20.75;23.75;100830.44;108075;1253;72473;-68
2024/03/01 10:55:21;;;;;;;27.40;14.10;;;;;;;21.06;23.30;100826.52;108092;1253;70384;-70
2024/03/01 10:58:09;;;;;;;26.80;13.40;;;;;;;20.46;23.31;100828.73;108147;1257;71380;-69
2024/03/01 11:00:59;;;;;;;24.00;12.80;;;;;;;20.02;24.37;100826.73;108086;1254;60200;-69
2024/03/01 11:03:40;;;;;;;32.10;14.50;;;;;;;20.06;24.20;100825.17;108078;1254;60300;-69
2024/03/01 11:06:25;;;;;;;21.50;9.80;;;;;;;19.94;24.26;100813.86;108130;1254;73952;-69
2024/03/01 11:09:18;;;;;;;32.70;14.80;;;;;;;19.65;24.69;100817.30;108135;1253;70456;-69
2024/03/01 11:12:01;;;;;;;27.70;13.00;;;;;;;19.28;25.49;100814.33;108081;1253;70980;-68
2024/03/01 11:14:31;;;;;;;31.50;14.90;;;;;;;19.26;25.49;100810.49;108111;1253;59908;-69
2024/03/01 11:16:58;;;;;;;31.40;15.10;;;;;;;19.44;25.52;100808.63;108097;1254;60181;-67
2024/03/01 11:19:26;;;;;;;28.10;13.80;;;;;;;19.56;25.03;100806.71;108063;1254;73709;-68
2024/03/01 11:22:05;;;;;;;24.90;12.20;;;;;;;19.40;24.37;100811.58;108066;1253;70321;-69